sensor_id;sensor_type;location;lat;lon;timestamp;pressure;altitude;pressure_sealevel;temperature;humidity
11212;BME280;5663;50.864;12.096;2022-11-13T00:01:17;100744.00;;;3.49;72.86
11212;BME280;5663;50.864;12.096;2022-11-13T00:03:46;100737.13;;;3.44;72.65
11212;BME280;5663;50.864;12.096;2022-11-13T00:06:16;100714.00;;;3.32;73.08
11212;BME280;5663;50.864;12.096;2022-11-13T00:08:46;100735.41;;;3.37;72.59
11212;BME280;5663;50.864;12.096;2022-11-13T00:11:15;100726.84;;;3.29;72.46
11212;BME280;5663;50.864;12.096;2022-11-13T00:13:43;100728.56;;;3.24;72.98
11212;BME280;5663;50.864;12.096;2022-11-13T00:16:13;100722.56;;;3.20;72.89
11212;BME280;5663;50.864;12.096;2022-11-13T00:18:43;100723.41;;;3.18;73.11
11212;BME280;5663;50.864;12.096;2022-11-13T00:21:12;100711.41;;;3.14;73.19
11212;BME280;5663;50.864;12.096;2022-11-13T00:23:43;100715.69;;;3.13;72.78
11212;BME280;5663;50.864;12.096;2022-11-13T00:26:13;100703.69;;;3.11;72.77
11212;BME280;5663;50.864;12.096;2022-11-13T00:28:42;100707.97;;;3.15;73.12
11212;BME280;5663;50.864;12.096;2022-11-13T00:31:12;100702.84;;;3.15;73.30
11212;BME280;5663;50.864;12.096;2022-11-13T00:33:40;100701.13;;;3.14;73.35
11212;BME280;5663;50.864;12.096;2022-11-13T00:36:13;100701.13;;;3.14;73.24
11212;BME280;5663;50.864;12.096;2022-11-13T00:38:42;100685.69;;;3.11;73.26
11212;BME280;5663;50.864;12.096;2022-11-13T00:41:11;100690.84;;;3.14;72.91
11212;BME280;5663;50.864;12.096;2022-11-13T00:43:39;100696.84;;;3.13;73.30
11212;BME280;5663;50.864;12.096;2022-11-13T00:46:07;100695.16;;;3.12;72.97
11212;BME280;5663;50.864;12.096;2022-11-13T00:48:36;100687.41;;;3.09;72.97
11212;BME280;5663;50.864;12.096;2022-11-13T00:51:04;100689.13;;;3.07;73.25
11212;BME280;5663;50.864;12.096;2022-11-13T00:53:32;100687.41;;;3.03;73.22
11212;BME280;5663;50.864;12.096;2022-11-13T00:56:02;100677.13;;;2.98;73.27
11212;BME280;5663;50.864;12.096;2022-11-13T00:58:30;100654.84;;;2.83;72.91
11212;BME280;5663;50.864;12.096;2022-11-13T01:01:04;100677.97;;;2.92;73.19
11212;BME280;5663;50.864;12.096;2022-11-13T01:03:33;100670.28;;;2.92;73.35
11212;BME280;5663;50.864;12.096;2022-11-13T01:06:09;100641.13;;;2.74;73.70
11212;BME280;5663;50.864;12.096;2022-11-13T01:08:38;100672.84;;;2.94;73.52
11212;BME280;5663;50.864;12.096;2022-11-13T01:11:11;100679.69;;;2.95;73.03
11212;BME280;5663;50.864;12.096;2022-11-13T01:13:41;100670.28;;;2.92;73.01
11212;BME280;5663;50.864;12.096;2022-11-13T01:16:11;100670.28;;;2.95;73.33
11212;BME280;5663;50.864;12.096;2022-11-13T01:18:40;100656.56;;;2.87;73.03
11212;BME280;5663;50.864;12.096;2022-11-13T01:21:10;100657.41;;;2.89;73.15
11212;BME280;5663;50.864;12.096;2022-11-13T01:23:39;100664.25;;;2.90;73.24
11212;BME280;5663;50.864;12.096;2022-11-13T01:26:12;100653.97;;;2.90;72.87
11212;BME280;5663;50.864;12.096;2022-11-13T01:28:50;100650.56;;;2.78;73.20
11212;BME280;5663;50.864;12.096;2022-11-13T01:31:21;100644.59;;;2.83;73.11
11212;BME280;5663;50.864;12.096;2022-11-13T01:33:50;100658.28;;;2.88;73.55
11212;BME280;5663;50.864;12.096;2022-11-13T01:36:20;100663.41;;;2.88;73.33
11212;BME280;5663;50.864;12.096;2022-11-13T01:38:48;100664.25;;;2.86;72.90
11212;BME280;5663;50.864;12.096;2022-11-13T01:41:20;100660.84;;;2.84;72.96
11212;BME280;5663;50.864;12.096;2022-11-13T01:43:50;100654.84;;;2.80;73.14
11212;BME280;5663;50.864;12.096;2022-11-13T01:46:24;100654.84;;;2.77;72.79
11212;BME280;5663;50.864;12.096;2022-11-13T01:48:59;100657.38;;;2.74;72.94
11212;BME280;5663;50.864;12.096;2022-11-13T01:51:32;100652.25;;;2.71;72.97
11212;BME280;5663;50.864;12.096;2022-11-13T01:54:02;100646.25;;;2.66;72.88
11212;BME280;5663;50.864;12.096;2022-11-13T01:56:51;100644.56;;;2.63;73.06
11212;BME280;5663;50.864;12.096;2022-11-13T01:59:23;100634.25;;;2.59;73.24
11212;BME280;5663;50.864;12.096;2022-11-13T02:01:53;100630.84;;;2.60;73.06
11212;BME280;5663;50.864;12.096;2022-11-13T02:04:22;100623.13;;;2.57;73.01
11212;BME280;5663;50.864;12.096;2022-11-13T02:06:52;100614.56;;;2.52;72.56
11212;BME280;5663;50.864;12.096;2022-11-13T02:09:23;100617.97;;;2.46;72.84
11212;BME280;5663;50.864;12.096;2022-11-13T02:11:54;100617.97;;;2.49;73.01
11212;BME280;5663;50.864;12.096;2022-11-13T02:14:25;100595.69;;;2.34;72.90
11212;BME280;5663;50.864;12.096;2022-11-13T02:16:57;100611.13;;;2.48;72.93
11212;BME280;5663;50.864;12.096;2022-11-13T02:19:28;100603.38;;;2.39;73.14
11212;BME280;5663;50.864;12.096;2022-11-13T02:22:03;100611.13;;;2.51;73.30
11212;BME280;5663;50.864;12.096;2022-11-13T02:24:38;100617.97;;;2.54;72.96
11212;BME280;5663;50.864;12.096;2022-11-13T02:27:10;100562.31;;;2.25;73.18
11212;BME280;5663;50.864;12.096;2022-11-13T02:29:41;100593.13;;;2.46;72.99
11212;BME280;5663;50.864;12.096;2022-11-13T02:32:09;100608.56;;;2.53;73.10
11212;BME280;5663;50.864;12.096;2022-11-13T02:34:46;100606.88;;;2.52;73.02
11212;BME280;5663;50.864;12.096;2022-11-13T02:37:15;100598.28;;;2.46;73.02
11212;BME280;5663;50.864;12.096;2022-11-13T02:39:44;100608.56;;;2.45;72.89
11212;BME280;5663;50.864;12.096;2022-11-13T02:42:12;100606.81;;;2.42;72.83
11212;BME280;5663;50.864;12.096;2022-11-13T02:44:41;100606.81;;;2.42;72.82
11212;BME280;5663;50.864;12.096;2022-11-13T02:47:09;100602.53;;;2.35;72.51
11212;BME280;5663;50.864;12.096;2022-11-13T02:49:37;100585.38;;;2.19;72.67
11212;BME280;5663;50.864;12.096;2022-11-13T02:52:05;100613.66;;;2.34;72.67
11212;BME280;5663;50.864;12.096;2022-11-13T02:54:32;100619.63;;;2.30;72.49
11212;BME280;5663;50.864;12.096;2022-11-13T02:57:02;100615.34;;;2.26;72.55
11212;BME280;5663;50.864;12.096;2022-11-13T02:59:29;100606.78;;;2.24;72.64
11212;BME280;5663;50.864;12.096;2022-11-13T03:01:57;100615.34;;;2.21;72.72
11212;BME280;5663;50.864;12.096;2022-11-13T03:04:25;100615.34;;;2.20;72.82
11212;BME280;5663;50.864;12.096;2022-11-13T03:06:53;100605.06;;;2.20;72.68
11212;BME280;5663;50.864;12.096;2022-11-13T03:09:21;100607.63;;;2.20;72.95
11212;BME280;5663;50.864;12.096;2022-11-13T03:11:48;100615.34;;;2.20;72.61
11212;BME280;5663;50.864;12.096;2022-11-13T03:14:18;100608.47;;;2.19;72.85
11212;BME280;5663;50.864;12.096;2022-11-13T03:16:45;100608.50;;;2.20;72.92
11212;BME280;5663;50.864;12.096;2022-11-13T03:19:13;100609.34;;;2.21;72.82
11212;BME280;5663;50.864;12.096;2022-11-13T03:21:41;100591.38;;;2.12;72.98
11212;BME280;5663;50.864;12.096;2022-11-13T03:24:09;100600.75;;;2.13;72.62
11212;BME280;5663;50.864;12.096;2022-11-13T03:26:36;100600.78;;;2.16;72.55
11212;BME280;5663;50.864;12.096;2022-11-13T03:29:04;100603.34;;;2.16;72.83
11212;BME280;5663;50.864;12.096;2022-11-13T03:31:34;100596.47;;;2.15;72.77
11212;BME280;5663;50.864;12.096;2022-11-13T03:34:02;100591.38;;;2.12;72.99
11212;BME280;5663;50.864;12.096;2022-11-13T03:36:30;100591.38;;;2.12;72.58
11212;BME280;5663;50.864;12.096;2022-11-13T03:38:58;100557.94;;;1.92;72.66
11212;BME280;5663;50.864;12.096;2022-11-13T03:41:26;100590.50;;;2.08;72.60
11212;BME280;5663;50.864;12.096;2022-11-13T03:43:53;100587.91;;;2.05;72.63
11212;BME280;5663;50.864;12.096;2022-11-13T03:46:21;100586.19;;;2.03;72.49
11212;BME280;5663;50.864;12.096;2022-11-13T03:48:50;100593.03;;;2.01;72.69
11212;BME280;5663;50.864;12.096;2022-11-13T03:51:18;100561.31;;;1.80;72.54
11212;BME280;5663;50.864;12.096;2022-11-13T03:53:45;100598.16;;;1.97;72.52
11212;BME280;5663;50.864;12.096;2022-11-13T03:56:13;100596.41;;;1.93;72.71
11212;BME280;5663;50.864;12.096;2022-11-13T03:58:41;100603.25;;;1.94;72.72
11212;BME280;5663;50.864;12.096;2022-11-13T04:01:08;100610.09;;;1.95;72.58
11212;BME280;5663;50.864;12.096;2022-11-13T04:03:36;100606.69;;;1.93;72.47
11212;BME280;5663;50.864;12.096;2022-11-13T04:06:07;100607.53;;;1.92;72.72
11212;BME280;5663;50.864;12.096;2022-11-13T04:08:35;100606.69;;;1.93;72.76
11212;BME280;5663;50.864;12.096;2022-11-13T04:11:07;100582.66;;;1.78;72.67
11212;BME280;5663;50.864;12.096;2022-11-13T04:13:35;100595.56;;;1.93;72.66
11212;BME280;5663;50.864;12.096;2022-11-13T04:16:02;100572.41;;;1.76;72.62
11212;BME280;5663;50.864;12.096;2022-11-13T04:18:31;100564.69;;;1.73;72.56
11212;BME280;5663;50.864;12.096;2022-11-13T04:20:59;100516.72;;;1.46;72.69
11212;BME280;5663;50.864;12.096;2022-11-13T04:23:29;100597.28;;;1.92;72.71
11212;BME280;5663;50.864;12.096;2022-11-13T04:25:57;100563.03;;;1.80;72.87
11212;BME280;5663;50.864;12.096;2022-11-13T04:28:24;100581.03;;;1.93;72.58
11212;BME280;5663;50.864;12.096;2022-11-13T04:30:54;100575.00;;;1.91;72.53
11212;BME280;5663;50.864;12.096;2022-11-13T04:33:22;100580.16;;;1.91;72.75
11212;BME280;5663;50.864;12.096;2022-11-13T04:35:50;100578.47;;;1.92;72.85
11212;BME280;5663;50.864;12.096;2022-11-13T04:38:18;100578.44;;;1.90;72.64
11212;BME280;5663;50.864;12.096;2022-11-13T04:40:49;100577.59;;;1.88;72.42
11212;BME280;5663;50.864;12.096;2022-11-13T04:43:37;100584.44;;;1.89;72.59
11212;BME280;5663;50.864;12.096;2022-11-13T04:46:04;100582.72;;;1.88;72.49
11212;BME280;5663;50.864;12.096;2022-11-13T04:48:32;100581.00;;;1.84;72.41
11212;BME280;5663;50.864;12.096;2022-11-13T04:51:00;100580.13;;;1.82;72.53
11212;BME280;5663;50.864;12.096;2022-11-13T04:53:28;100579.28;;;1.80;72.46
11212;BME280;5663;50.864;12.096;2022-11-13T04:55:57;100579.28;;;1.80;72.59
11212;BME280;5663;50.864;12.096;2022-11-13T04:58:25;100574.16;;;1.80;72.52
11212;BME280;5663;50.864;12.096;2022-11-13T05:00:53;100551.00;;;1.69;72.53
11212;BME280;5663;50.864;12.096;2022-11-13T05:03:20;100565.56;;;1.78;72.39
11212;BME280;5663;50.864;12.096;2022-11-13T05:05:48;100569.00;;;1.77;72.36
11212;BME280;5663;50.864;12.096;2022-11-13T05:08:16;100567.28;;;1.76;72.27
11212;BME280;5663;50.864;12.096;2022-11-13T05:10:44;100565.56;;;1.73;72.42
11212;BME280;5663;50.864;12.096;2022-11-13T05:13:13;100556.97;;;1.71;72.33
11212;BME280;5663;50.864;12.096;2022-11-13T05:15:41;100551.88;;;1.70;72.39
11212;BME280;5663;50.864;12.096;2022-11-13T05:18:10;100551.84;;;1.67;72.25
11212;BME280;5663;50.864;12.096;2022-11-13T05:20:38;100545.00;;;1.63;72.13
11212;BME280;5663;50.864;12.096;2022-11-13T05:23:05;100538.16;;;1.60;71.98
11212;BME280;5663;50.864;12.096;2022-11-13T05:25:33;100536.44;;;1.58;71.94
11212;BME280;5663;50.864;12.096;2022-11-13T05:28:01;100526.97;;;1.47;72.22
11212;BME280;5663;50.864;12.096;2022-11-13T05:30:30;100529.56;;;1.51;72.20
11212;BME280;5663;50.864;12.096;2022-11-13T05:32:58;100532.97;;;1.50;72.06
11212;BME280;5663;50.864;12.096;2022-11-13T05:35:26;100525.28;;;1.50;72.12
11212;BME280;5663;50.864;12.096;2022-11-13T05:37:53;100523.56;;;1.48;72.13
11212;BME280;5663;50.864;12.096;2022-11-13T05:40:21;100515.84;;;1.47;72.03
11212;BME280;5663;50.864;12.096;2022-11-13T05:42:49;100523.56;;;1.45;72.12
11212;BME280;5663;50.864;12.096;2022-11-13T05:45:17;100491.00;;;1.26;72.07
11212;BME280;5663;50.864;12.096;2022-11-13T05:47:46;100522.69;;;1.43;72.18
11212;BME280;5663;50.864;12.096;2022-11-13T05:50:14;100511.59;;;1.40;72.14
11212;BME280;5663;50.864;12.096;2022-11-13T05:52:42;100519.28;;;1.41;72.19
11212;BME280;5663;50.864;12.096;2022-11-13T05:55:11;100514.97;;;1.39;71.97
11212;BME280;5663;50.864;12.096;2022-11-13T05:57:38;100517.53;;;1.37;72.08
11212;BME280;5663;50.864;12.096;2022-11-13T06:00:07;100517.50;;;1.34;72.09
11212;BME280;5663;50.864;12.096;2022-11-13T06:02:35;100514.09;;;1.32;71.66
11212;BME280;5663;50.864;12.096;2022-11-13T06:05:06;100513.22;;;1.30;71.89
11212;BME280;5663;50.864;12.096;2022-11-13T06:07:34;100505.53;;;1.30;72.24
11212;BME280;5663;50.864;12.096;2022-11-13T06:10:02;100508.97;;;1.29;72.04
11212;BME280;5663;50.864;12.096;2022-11-13T06:12:30;100502.97;;;1.30;72.16
11212;BME280;5663;50.864;12.096;2022-11-13T06:14:57;100431.00;;;0.83;72.28
11212;BME280;5663;50.864;12.096;2022-11-13T06:17:26;100502.13;;;1.30;72.17
11212;BME280;5663;50.864;12.096;2022-11-13T06:19:53;100499.56;;;1.31;72.08
11212;BME280;5663;50.864;12.096;2022-11-13T06:22:26;100502.13;;;1.31;72.17
11212;BME280;5663;50.864;12.096;2022-11-13T06:24:53;100493.59;;;1.29;72.00
11212;BME280;5663;50.864;12.096;2022-11-13T06:27:21;100495.25;;;1.27;72.03
11212;BME280;5663;50.864;12.096;2022-11-13T06:29:49;100489.28;;;1.22;72.05
11212;BME280;5663;50.864;12.096;2022-11-13T06:32:16;100494.38;;;1.23;72.20
11212;BME280;5663;50.864;12.096;2022-11-13T06:34:44;100491.81;;;1.22;72.31
11212;BME280;5663;50.864;12.096;2022-11-13T06:37:12;100501.22;;;1.23;72.17
11212;BME280;5663;50.864;12.096;2022-11-13T06:39:41;100500.38;;;1.21;71.88
11212;BME280;5663;50.864;12.096;2022-11-13T06:42:08;100502.09;;;1.22;72.00
11212;BME280;5663;50.864;12.096;2022-11-13T06:44:36;100504.63;;;1.22;71.81
11212;BME280;5663;50.864;12.096;2022-11-13T06:47:04;100502.09;;;1.22;72.04
11212;BME280;5663;50.864;12.096;2022-11-13T06:49:31;100502.09;;;1.22;72.08
11212;BME280;5663;50.864;12.096;2022-11-13T06:51:59;100497.78;;;1.19;72.00
11212;BME280;5663;50.864;12.096;2022-11-13T06:54:27;100496.09;;;1.17;71.92
11212;BME280;5663;50.864;12.096;2022-11-13T06:56:56;100490.06;;;1.15;71.84
11212;BME280;5663;50.864;12.096;2022-11-13T06:59:24;100473.84;;;1.11;71.87
11212;BME280;5663;50.864;12.096;2022-11-13T07:01:51;100479.84;;;1.15;71.96
11212;BME280;5663;50.864;12.096;2022-11-13T07:04:19;100475.56;;;1.15;71.97
11212;BME280;5663;50.864;12.096;2022-11-13T07:06:47;100476.44;;;1.16;71.62
11212;BME280;5663;50.864;12.096;2022-11-13T07:09:15;100473.03;;;1.17;72.04
11212;BME280;5663;50.864;12.096;2022-11-13T07:11:42;100477.28;;;1.18;72.06
11212;BME280;5663;50.864;12.096;2022-11-13T07:14:12;100467.03;;;1.18;72.24
11212;BME280;5663;50.864;12.096;2022-11-13T07:16:40;100413.13;;;0.90;72.18
11212;BME280;5663;50.864;12.096;2022-11-13T07:19:07;100467.06;;;1.21;72.30
11212;BME280;5663;50.864;12.096;2022-11-13T07:21:35;100467.94;;;1.26;72.27
11212;BME280;5663;50.864;12.096;2022-11-13T07:24:04;100470.53;;;1.29;72.12
11212;BME280;5663;50.864;12.096;2022-11-13T07:26:32;100476.50;;;1.31;72.26
11212;BME280;5663;50.864;12.096;2022-11-13T07:28:59;100470.53;;;1.35;72.21
11212;BME280;5663;50.864;12.096;2022-11-13T07:31:30;100457.72;;;1.35;72.05
11212;BME280;5663;50.864;12.096;2022-11-13T07:33:58;100450.06;;;1.37;72.36
11212;BME280;5663;50.864;12.096;2022-11-13T07:36:26;100456.06;;;1.40;72.57
11212;BME280;5663;50.864;12.096;2022-11-13T07:38:54;100450.91;;;1.43;72.47
11212;BME280;5663;50.864;12.096;2022-11-13T07:41:21;100457.78;;;1.44;72.40
11212;BME280;5663;50.864;12.096;2022-11-13T07:43:49;100458.63;;;1.46;72.35
11212;BME280;5663;50.864;12.096;2022-11-13T07:46:18;100460.31;;;1.47;72.25
11212;BME280;5663;50.864;12.096;2022-11-13T07:48:47;100461.19;;;1.50;72.51
11212;BME280;5663;50.864;12.096;2022-11-13T07:51:15;100461.19;;;1.51;72.51
11212;BME280;5663;50.864;12.096;2022-11-13T07:53:51;100457.81;;;1.54;72.43
11212;BME280;5663;50.864;12.096;2022-11-13T07:56:48;100455.22;;;1.49;72.55
11212;BME280;5663;50.864;12.096;2022-11-13T07:59:19;100458.66;;;1.57;72.56
11212;BME280;5663;50.864;12.096;2022-11-13T08:01:46;100468.09;;;1.60;72.49
11212;BME280;5663;50.864;12.096;2022-11-13T08:04:16;100463.81;;;1.60;72.51
11212;BME280;5663;50.864;12.096;2022-11-13T08:06:43;100464.69;;;1.64;72.52
11212;BME280;5663;50.864;12.096;2022-11-13T08:09:11;100469.78;;;1.67;72.64
11212;BME280;5663;50.864;12.096;2022-11-13T08:11:39;100462.13;;;1.68;72.78
11212;BME280;5663;50.864;12.096;2022-11-13T08:14:06;100467.25;;;1.71;72.75
11212;BME280;5663;50.864;12.096;2022-11-13T08:16:34;100457.84;;;1.75;72.91
11212;BME280;5663;50.864;12.096;2022-11-13T08:19:02;100463.84;;;1.77;72.65
11212;BME280;5663;50.864;12.096;2022-11-13T08:21:31;100463.00;;;1.81;73.22
11212;BME280;5663;50.864;12.096;2022-11-13T08:24:03;100458.75;;;1.85;73.15
11212;BME280;5663;50.864;12.096;2022-11-13T08:26:30;100450.19;;;1.87;73.11
11212;BME280;5663;50.864;12.096;2022-11-13T08:29:00;100452.75;;;1.90;73.18
11212;BME280;5663;50.864;12.096;2022-11-13T08:31:28;100445.06;;;1.90;73.14
11212;BME280;5663;50.864;12.096;2022-11-13T08:33:58;100451.03;;;1.95;73.17
11212;BME280;5663;50.864;12.096;2022-11-13T08:36:27;100446.81;;;2.04;73.42
11212;BME280;5663;50.864;12.096;2022-11-13T08:38:57;100447.66;;;2.09;73.58
11212;BME280;5663;50.864;12.096;2022-11-13T08:41:24;100439.97;;;2.10;73.60
11212;BME280;5663;50.864;12.096;2022-11-13T08:43:52;100451.09;;;2.17;73.58
11212;BME280;5663;50.864;12.096;2022-11-13T08:46:20;100444.22;;;2.19;73.72
11212;BME280;5663;50.864;12.096;2022-11-13T08:48:47;100445.94;;;2.23;73.68
11212;BME280;5663;50.864;12.096;2022-11-13T08:51:15;100445.97;;;2.26;73.78
11212;BME280;5663;50.864;12.096;2022-11-13T08:53:43;100445.09;;;2.33;74.27
11212;BME280;5663;50.864;12.096;2022-11-13T08:56:13;100433.97;;;2.34;73.96
11212;BME280;5663;50.864;12.096;2022-11-13T08:58:43;100444.25;;;2.42;73.99
11212;BME280;5663;50.864;12.096;2022-11-13T09:01:11;100433.97;;;2.46;74.28
11212;BME280;5663;50.864;12.096;2022-11-13T09:03:39;100437.41;;;2.52;74.15
11212;BME280;5663;50.864;12.096;2022-11-13T09:06:08;100433.97;;;2.53;74.17
11212;BME280;5663;50.864;12.096;2022-11-13T09:08:37;100440.78;;;2.63;74.56
11212;BME280;5663;50.864;12.096;2022-11-13T09:11:06;100435.66;;;2.69;74.23
11212;BME280;5663;50.864;12.096;2022-11-13T09:13:37;100437.38;;;2.73;74.43
11212;BME280;5663;50.864;12.096;2022-11-13T09:16:05;100439.06;;;2.80;74.60
11212;BME280;5663;50.864;12.096;2022-11-13T09:18:34;100449.31;;;2.86;74.67
11212;BME280;5663;50.864;12.096;2022-11-13T09:21:03;100434.75;;;2.90;75.18
11212;BME280;5663;50.864;12.096;2022-11-13T09:23:32;100433.03;;;3.01;75.49
11212;BME280;5663;50.864;12.096;2022-11-13T09:26:00;100429.56;;;3.10;75.81
11212;BME280;5663;50.864;12.096;2022-11-13T09:28:29;100425.25;;;3.18;75.58
11212;BME280;5663;50.864;12.096;2022-11-13T09:30:58;100420.94;;;3.25;75.83
11212;BME280;5663;50.864;12.096;2022-11-13T09:33:28;100420.06;;;3.30;75.75
11212;BME280;5663;50.864;12.096;2022-11-13T09:35:56;100424.31;;;3.40;76.41
11212;BME280;5663;50.864;12.096;2022-11-13T09:38:24;100423.38;;;3.51;76.13
11212;BME280;5663;50.864;12.096;2022-11-13T09:40:54;100414.75;;;3.61;76.47
11212;BME280;5663;50.864;12.096;2022-11-13T09:43:27;100410.41;;;3.72;77.40
11212;BME280;5663;50.864;12.096;2022-11-13T09:46:03;100399.25;;;3.76;77.09
11212;BME280;5663;50.864;12.096;2022-11-13T09:48:36;100414.53;;;3.94;77.41
11212;BME280;5663;50.864;12.096;2022-11-13T09:51:11;100415.34;;;4.04;77.52
11212;BME280;5663;50.864;12.096;2022-11-13T09:53:41;100419.53;;;4.16;77.63
11212;BME280;5663;50.864;12.096;2022-11-13T09:56:27;100422.03;;;4.28;78.45
11212;BME280;5663;50.864;12.096;2022-11-13T09:59:03;100426.25;;;4.35;77.90
11212;BME280;5663;50.864;12.096;2022-11-13T10:01:48;100426.16;;;4.48;78.50
11212;BME280;5663;50.864;12.096;2022-11-13T10:04:23;100417.44;;;4.58;78.17
11212;BME280;5663;50.864;12.096;2022-11-13T10:07:03;100419.09;;;4.68;78.27
11212;BME280;5663;50.864;12.096;2022-11-13T10:09:47;100413.78;;;4.79;79.03
11212;BME280;5663;50.864;12.096;2022-11-13T10:12:21;100406.84;;;4.88;79.00
11212;BME280;5663;50.864;12.096;2022-11-13T10:14:51;100397.25;;;4.98;79.19
11212;BME280;5663;50.864;12.096;2022-11-13T10:17:25;100391.16;;;5.08;79.36
11212;BME280;5663;50.864;12.096;2022-11-13T10:19:57;100390.13;;;5.20;79.33
11212;BME280;5663;50.864;12.096;2022-11-13T10:22:34;100390.88;;;5.31;79.71
11212;BME280;5663;50.864;12.096;2022-11-13T10:25:10;100344.59;;;5.19;79.96
11212;BME280;5663;50.864;12.096;2022-11-13T10:27:41;100392.25;;;5.54;80.13
11212;BME280;5663;50.864;12.096;2022-11-13T10:30:14;100386.88;;;5.69;80.42
11212;BME280;5663;50.864;12.096;2022-11-13T10:32:45;100378.16;;;5.79;80.18
11212;BME280;5663;50.864;12.096;2022-11-13T10:35:40;100369.41;;;5.88;80.40
11212;BME280;5663;50.864;12.096;2022-11-13T10:38:17;100368.44;;;5.97;80.64
11212;BME280;5663;50.864;12.096;2022-11-13T10:40:48;100351.94;;;6.07;80.62
11212;BME280;5663;50.864;12.096;2022-11-13T10:43:19;100338.00;;;6.14;80.56
11212;BME280;5663;50.864;12.096;2022-11-13T10:45:55;100336.16;;;6.22;80.38
11212;BME280;5663;50.864;12.096;2022-11-13T10:48:26;100334.28;;;6.30;81.02
11212;BME280;5663;50.864;12.096;2022-11-13T10:50:58;100334.97;;;6.40;81.04
11212;BME280;5663;50.864;12.096;2022-11-13T10:53:37;100319.25;;;6.52;81.23
11212;BME280;5663;50.864;12.096;2022-11-13T10:56:18;100313.03;;;6.62;80.78
11212;BME280;5663;50.864;12.096;2022-11-13T10:59:09;100294.00;;;6.66;81.17
11212;BME280;5663;50.864;12.096;2022-11-13T11:01:38;100298.81;;;6.83;81.15
11212;BME280;5663;50.864;12.096;2022-11-13T11:04:20;100289.91;;;6.97;81.01
11212;BME280;5663;50.864;12.096;2022-11-13T11:06:50;100294.88;;;7.06;80.80
11212;BME280;5663;50.864;12.096;2022-11-13T11:09:24;100284.41;;;7.12;80.46
11212;BME280;5663;50.864;12.096;2022-11-13T11:12:07;100279.03;;;7.21;80.65
11212;BME280;5663;50.864;12.096;2022-11-13T11:17:45;100281.22;;;7.38;79.87
11212;BME280;5663;50.864;12.096;2022-11-13T11:20:34;100272.53;;;7.42;79.76
11212;BME280;5663;50.864;12.096;2022-11-13T11:23:15;100268.09;;;7.46;79.26
11212;BME280;5663;50.864;12.096;2022-11-13T11:25:52;100266.31;;;7.49;79.35
11212;BME280;5663;50.864;12.096;2022-11-13T11:28:28;100267.06;;;7.54;79.32
11212;BME280;5663;50.864;12.096;2022-11-13T11:31:07;100252.28;;;7.58;79.37
11212;BME280;5663;50.864;12.096;2022-11-13T11:33:47;100240.13;;;7.61;79.10
11212;BME280;5663;50.864;12.096;2022-11-13T11:36:30;100255.31;;;7.75;79.38
11212;BME280;5663;50.864;12.096;2022-11-13T11:39:05;100248.28;;;7.80;78.80
11212;BME280;5663;50.864;12.096;2022-11-13T11:41:47;100254.81;;;7.95;78.75
11212;BME280;5663;50.864;12.096;2022-11-13T11:44:22;100256.31;;;8.04;78.34
11212;BME280;5663;50.864;12.096;2022-11-13T11:46:52;100253.41;;;8.16;78.09
11212;BME280;5663;50.864;12.096;2022-11-13T11:49:24;100248.91;;;8.23;78.05
11212;BME280;5663;50.864;12.096;2022-11-13T11:52:05;100244.31;;;8.32;77.72
11212;BME280;5663;50.864;12.096;2022-11-13T11:54:50;100240.63;;;8.41;77.34
11212;BME280;5663;50.864;12.096;2022-11-13T11:57:34;100242.25;;;8.45;76.93
11212;BME280;5663;50.864;12.096;2022-11-13T12:00:08;100249.81;;;8.53;76.80
11212;BME280;5663;50.864;12.096;2022-11-13T12:03:01;100248.81;;;8.58;76.96
11212;BME280;5663;50.864;12.096;2022-11-13T12:05:41;100255.41;;;8.69;76.70
11212;BME280;5663;50.864;12.096;2022-11-13T12:08:21;100260.44;;;8.75;76.38
11212;BME280;5663;50.864;12.096;2022-11-13T12:10:57;100233.03;;;8.66;76.87
11212;BME280;5663;50.864;12.096;2022-11-13T12:13:29;100248.03;;;8.84;76.34
11212;BME280;5663;50.864;12.096;2022-11-13T12:16:05;100237.56;;;8.87;76.54
11212;BME280;5663;50.864;12.096;2022-11-13T12:18:49;100239.88;;;8.97;76.09
11212;BME280;5663;50.864;12.096;2022-11-13T12:21:22;100237.19;;;9.00;75.93
11212;BME280;5663;50.864;12.096;2022-11-13T12:24:04;100232.72;;;9.05;75.86
11212;BME280;5663;50.864;12.096;2022-11-13T12:26:38;100230.84;;;9.10;75.82
11212;BME280;5663;50.864;12.096;2022-11-13T12:29:22;100226.38;;;9.13;75.81
11212;BME280;5663;50.864;12.096;2022-11-13T12:34:46;100222.69;;;9.22;75.92
11212;BME280;5663;50.864;12.096;2022-11-13T12:37:25;100213.75;;;9.31;75.68
11212;BME280;5663;50.864;12.096;2022-11-13T12:40:01;100205.88;;;9.32;75.62
11212;BME280;5663;50.864;12.096;2022-11-13T12:42:34;100205.06;;;9.32;75.36
11212;BME280;5663;50.864;12.096;2022-11-13T12:45:18;100199.53;;;9.41;75.35
11212;BME280;5663;50.864;12.096;2022-11-13T12:47:53;100191.50;;;9.49;75.25
11212;BME280;5663;50.864;12.096;2022-11-13T12:50:26;100171.75;;;9.45;74.65
11212;BME280;5663;50.864;12.096;2022-11-13T12:52:59;100171.28;;;9.58;74.27
11212;BME280;5663;50.864;12.096;2022-11-13T12:55:30;100154.28;;;9.50;73.87
11212;BME280;5663;50.864;12.096;2022-11-13T12:58:15;100158.16;;;9.63;73.67
11212;BME280;5663;50.864;12.096;2022-11-13T13:00:53;100178.59;;;9.72;73.17
11212;BME280;5663;50.864;12.096;2022-11-13T13:03:31;100152.28;;;9.58;73.54
11212;BME280;5663;50.864;12.096;2022-11-13T13:06:17;100174.91;;;9.79;73.32
11212;BME280;5663;50.864;12.096;2022-11-13T13:09:02;100172.41;;;9.76;72.71
11212;BME280;5663;50.864;12.096;2022-11-13T13:11:42;100170.81;;;9.72;72.76
11212;BME280;5663;50.864;12.096;2022-11-13T13:14:23;100172.72;;;9.67;72.36
11212;BME280;5663;50.864;12.096;2022-11-13T13:17:17;100153.06;;;9.60;72.39
11212;BME280;5663;50.864;12.096;2022-11-13T13:19:56;100161.53;;;9.65;72.40
11212;BME280;5663;50.864;12.096;2022-11-13T13:22:27;100160.91;;;9.58;72.14
11212;BME280;5663;50.864;12.096;2022-11-13T13:25:01;100148.19;;;9.51;72.17
11212;BME280;5663;50.864;12.096;2022-11-13T13:27:38;100154.97;;;9.55;72.11